sensor_id;sensor_type;location;lat;lon;timestamp;P1;durP1;ratioP1;P2;durP2;ratioP2
78368;SDS011;71113;43.092;-89.268;2023-07-13T00:01:57;7.65;;;3.33;;
78368;SDS011;71113;43.092;-89.268;2023-07-13T00:04:24;9.43;;;3.83;;
78368;SDS011;71113;43.092;-89.268;2023-07-13T00:06:51;8.00;;;3.28;;
78368;SDS011;71113;43.092;-89.268;2023-07-13T00:09:18;8.05;;;3.38;;
78368;SDS011;71113;43.092;-89.268;2023-07-13T00:11:44;7.95;;;3.15;;
78368;SDS011;71113;43.092;-89.268;2023-07-13T00:14:12;6.53;;;3.10;;
78368;SDS011;71113;43.092;-89.268;2023-07-13T00:16:40;7.82;;;3.25;;
78368;SDS011;71113;43.092;-89.268;2023-07-13T00:19:09;7.45;;;3.20;;
78368;SDS011;71113;43.092;-89.268;2023-07-13T00:21:35;9.25;;;2.85;;
78368;SDS011;71113;43.092;-89.268;2023-07-13T00:24:01;4.80;;;2.33;;
78368;SDS011;71113;43.092;-89.268;2023-07-13T00:26:28;6.60;;;3.00;;
78368;SDS011;71113;43.092;-89.268;2023-07-13T00:28:54;6.05;;;3.17;;
78368;SDS011;71113;43.092;-89.268;2023-07-13T00:31:20;5.10;;;2.65;;
78368;SDS011;71113;43.092;-89.268;2023-07-13T00:33:46;5.88;;;2.38;;
78368;SDS011;71113;43.092;-89.268;2023-07-13T00:36:12;6.05;;;2.70;;
78368;SDS011;71113;43.092;-89.268;2023-07-13T00:38:38;5.07;;;2.53;;
78368;SDS011;71113;43.092;-89.268;2023-07-13T00:41:04;4.50;;;2.30;;
78368;SDS011;71113;43.092;-89.268;2023-07-13T00:43:30;4.53;;;2.22;;
78368;SDS011;71113;43.092;-89.268;2023-07-13T00:48:24;7.78;;;3.55;;
78368;SDS011;71113;43.092;-89.268;2023-07-13T00:51:00;8.05;;;3.78;;
78368;SDS011;71113;43.092;-89.268;2023-07-13T00:53:27;8.32;;;3.83;;
78368;SDS011;71113;43.092;-89.268;2023-07-13T00:55:55;10.05;;;4.40;;
78368;SDS011;71113;43.092;-89.268;2023-07-13T00:58:22;8.65;;;3.70;;
78368;SDS011;71113;43.092;-89.268;2023-07-13T01:00:50;8.77;;;3.72;;
78368;SDS011;71113;43.092;-89.268;2023-07-13T01:03:16;7.72;;;3.70;;
78368;SDS011;71113;43.092;-89.268;2023-07-13T01:05:44;6.30;;;2.85;;
78368;SDS011;71113;43.092;-89.268;2023-07-13T01:08:15;4.90;;;2.75;;
78368;SDS011;71113;43.092;-89.268;2023-07-13T01:10:50;5.82;;;2.42;;
78368;SDS011;71113;43.092;-89.268;2023-07-13T01:13:17;4.25;;;2.28;;
78368;SDS011;71113;43.092;-89.268;2023-07-13T01:15:45;4.90;;;2.58;;
78368;SDS011;71113;43.092;-89.268;2023-07-13T01:18:14;9.00;;;2.22;;
78368;SDS011;71113;43.092;-89.268;2023-07-13T01:21:02;7.18;;;2.83;;
78368;SDS011;71113;43.092;-89.268;2023-07-13T01:23:30;6.90;;;2.80;;
78368;SDS011;71113;43.092;-89.268;2023-07-13T01:25:57;4.60;;;2.92;;
78368;SDS011;71113;43.092;-89.268;2023-07-13T01:28:25;5.00;;;2.70;;
78368;SDS011;71113;43.092;-89.268;2023-07-13T01:30:52;4.40;;;2.40;;
78368;SDS011;71113;43.092;-89.268;2023-07-13T01:33:20;4.57;;;2.10;;
78368;SDS011;71113;43.092;-89.268;2023-07-13T01:35:46;4.72;;;2.40;;
78368;SDS011;71113;43.092;-89.268;2023-07-13T01:38:14;4.00;;;2.30;;
78368;SDS011;71113;43.092;-89.268;2023-07-13T01:40:41;4.05;;;2.35;;
78368;SDS011;71113;43.092;-89.268;2023-07-13T01:43:07;3.83;;;2.20;;
78368;SDS011;71113;43.092;-89.268;2023-07-13T01:45:33;3.70;;;2.35;;
78368;SDS011;71113;43.092;-89.268;2023-07-13T01:47:59;4.63;;;2.45;;
78368;SDS011;71113;43.092;-89.268;2023-07-13T01:50:25;4.43;;;2.30;;
78368;SDS011;71113;43.092;-89.268;2023-07-13T01:52:51;5.63;;;2.50;;
78368;SDS011;71113;43.092;-89.268;2023-07-13T01:55:17;4.15;;;1.90;;
78368;SDS011;71113;43.092;-89.268;2023-07-13T01:57:43;5.18;;;2.50;;
78368;SDS011;71113;43.092;-89.268;2023-07-13T02:00:09;3.97;;;2.30;;
78368;SDS011;71113;43.092;-89.268;2023-07-13T02:02:36;4.07;;;2.40;;
78368;SDS011;71113;43.092;-89.268;2023-07-13T02:05:02;6.32;;;2.97;;
78368;SDS011;71113;43.092;-89.268;2023-07-13T02:07:28;3.97;;;2.42;;
78368;SDS011;71113;43.092;-89.268;2023-07-13T02:09:54;5.07;;;2.60;;
78368;SDS011;71113;43.092;-89.268;2023-07-13T02:12:20;6.05;;;2.72;;
78368;SDS011;71113;43.092;-89.268;2023-07-13T02:14:46;5.22;;;2.40;;
78368;SDS011;71113;43.092;-89.268;2023-07-13T02:17:12;8.13;;;2.40;;
78368;SDS011;71113;43.092;-89.268;2023-07-13T02:19:38;4.70;;;2.35;;
78368;SDS011;71113;43.092;-89.268;2023-07-13T02:22:04;4.90;;;2.40;;
78368;SDS011;71113;43.092;-89.268;2023-07-13T02:24:30;5.30;;;2.30;;
78368;SDS011;71113;43.092;-89.268;2023-07-13T02:26:56;4.53;;;2.47;;
78368;SDS011;71113;43.092;-89.268;2023-07-13T02:29:22;3.70;;;2.30;;
78368;SDS011;71113;43.092;-89.268;2023-07-13T02:31:48;3.47;;;2.22;;
78368;SDS011;71113;43.092;-89.268;2023-07-13T02:34:14;3.47;;;2.00;;
78368;SDS011;71113;43.092;-89.268;2023-07-13T02:36:40;3.67;;;2.38;;
78368;SDS011;71113;43.092;-89.268;2023-07-13T02:39:06;5.20;;;2.30;;
78368;SDS011;71113;43.092;-89.268;2023-07-13T02:41:33;5.10;;;2.53;;
78368;SDS011;71113;43.092;-89.268;2023-07-13T02:43:59;3.78;;;2.35;;
78368;SDS011;71113;43.092;-89.268;2023-07-13T02:46:35;4.30;;;2.30;;
78368;SDS011;71113;43.092;-89.268;2023-07-13T02:49:09;3.47;;;2.25;;
78368;SDS011;71113;43.092;-89.268;2023-07-13T02:51:35;4.40;;;2.55;;
78368;SDS011;71113;43.092;-89.268;2023-07-13T02:54:02;5.97;;;2.17;;
78368;SDS011;71113;43.092;-89.268;2023-07-13T02:56:30;3.65;;;2.10;;
78368;SDS011;71113;43.092;-89.268;2023-07-13T02:58:57;4.53;;;2.22;;
78368;SDS011;71113;43.092;-89.268;2023-07-13T03:01:24;3.78;;;2.20;;
78368;SDS011;71113;43.092;-89.268;2023-07-13T03:03:51;4.25;;;2.30;;
78368;SDS011;71113;43.092;-89.268;2023-07-13T03:06:17;5.05;;;2.20;;
78368;SDS011;71113;43.092;-89.268;2023-07-13T03:08:44;3.85;;;2.42;;
78368;SDS011;71113;43.092;-89.268;2023-07-13T03:11:12;4.57;;;2.25;;
78368;SDS011;71113;43.092;-89.268;2023-07-13T03:13:40;5.97;;;2.80;;
78368;SDS011;71113;43.092;-89.268;2023-07-13T03:16:07;3.97;;;2.50;;
78368;SDS011;71113;43.092;-89.268;2023-07-13T03:18:35;4.03;;;2.58;;
78368;SDS011;71113;43.092;-89.268;2023-07-13T03:21:01;3.50;;;2.28;;
78368;SDS011;71113;43.092;-89.268;2023-07-13T03:23:27;3.97;;;2.22;;
78368;SDS011;71113;43.092;-89.268;2023-07-13T03:26:04;5.28;;;2.25;;
78368;SDS011;71113;43.092;-89.268;2023-07-13T03:28:30;4.45;;;2.20;;
78368;SDS011;71113;43.092;-89.268;2023-07-13T03:31:00;4.18;;;2.60;;
78368;SDS011;71113;43.092;-89.268;2023-07-13T03:33:31;3.97;;;2.20;;
78368;SDS011;71113;43.092;-89.268;2023-07-13T03:35:57;4.97;;;2.30;;
78368;SDS011;71113;43.092;-89.268;2023-07-13T03:38:23;4.22;;;2.38;;
78368;SDS011;71113;43.092;-89.268;2023-07-13T03:40:49;4.05;;;2.13;;
78368;SDS011;71113;43.092;-89.268;2023-07-13T03:43:15;4.40;;;2.30;;
78368;SDS011;71113;43.092;-89.268;2023-07-13T03:45:41;4.03;;;2.25;;
78368;SDS011;71113;43.092;-89.268;2023-07-13T03:48:06;4.75;;;2.80;;
78368;SDS011;71113;43.092;-89.268;2023-07-13T03:50:32;4.15;;;2.35;;
78368;SDS011;71113;43.092;-89.268;2023-07-13T03:52:59;4.53;;;2.30;;
78368;SDS011;71113;43.092;-89.268;2023-07-13T03:55:26;3.22;;;1.95;;
78368;SDS011;71113;43.092;-89.268;2023-07-13T03:57:54;5.15;;;2.40;;
78368;SDS011;71113;43.092;-89.268;2023-07-13T04:00:24;4.50;;;2.63;;
78368;SDS011;71113;43.092;-89.268;2023-07-13T04:02:50;5.05;;;2.25;;
78368;SDS011;71113;43.092;-89.268;2023-07-13T04:05:17;5.00;;;2.50;;
78368;SDS011;71113;43.092;-89.268;2023-07-13T04:07:43;5.25;;;2.75;;
78368;SDS011;71113;43.092;-89.268;2023-07-13T04:10:09;5.30;;;2.80;;
78368;SDS011;71113;43.092;-89.268;2023-07-13T04:12:35;4.25;;;2.53;;
78368;SDS011;71113;43.092;-89.268;2023-07-13T04:15:01;3.83;;;2.63;;
78368;SDS011;71113;43.092;-89.268;2023-07-13T04:17:27;3.45;;;2.30;;
78368;SDS011;71113;43.092;-89.268;2023-07-13T04:19:53;4.95;;;2.50;;
78368;SDS011;71113;43.092;-89.268;2023-07-13T04:22:19;4.38;;;2.45;;
78368;SDS011;71113;43.092;-89.268;2023-07-13T04:24:45;3.83;;;2.60;;
78368;SDS011;71113;43.092;-89.268;2023-07-13T04:27:10;3.92;;;2.63;;
78368;SDS011;71113;43.092;-89.268;2023-07-13T04:29:36;3.83;;;2.25;;
78368;SDS011;71113;43.092;-89.268;2023-07-13T04:32:02;3.28;;;2.20;;
78368;SDS011;71113;43.092;-89.268;2023-07-13T04:34:28;3.83;;;2.22;;
78368;SDS011;71113;43.092;-89.268;2023-07-13T04:36:54;3.88;;;2.45;;
78368;SDS011;71113;43.092;-89.268;2023-07-13T04:39:20;5.15;;;2.83;;
78368;SDS011;71113;43.092;-89.268;2023-07-13T04:41:46;4.68;;;2.45;;
78368;SDS011;71113;43.092;-89.268;2023-07-13T04:44:12;4.85;;;2.65;;
78368;SDS011;71113;43.092;-89.268;2023-07-13T04:46:38;3.42;;;2.40;;
78368;SDS011;71113;43.092;-89.268;2023-07-13T04:49:04;4.32;;;2.63;;
78368;SDS011;71113;43.092;-89.268;2023-07-13T04:51:30;7.32;;;2.33;;
78368;SDS011;71113;43.092;-89.268;2023-07-13T04:53:55;4.20;;;2.30;;
78368;SDS011;71113;43.092;-89.268;2023-07-13T04:56:21;3.88;;;2.53;;
78368;SDS011;71113;43.092;-89.268;2023-07-13T04:58:47;4.90;;;2.58;;
78368;SDS011;71113;43.092;-89.268;2023-07-13T05:01:13;5.57;;;2.97;;
78368;SDS011;71113;43.092;-89.268;2023-07-13T05:03:39;4.30;;;2.53;;
78368;SDS011;71113;43.092;-89.268;2023-07-13T05:06:05;4.47;;;2.80;;
78368;SDS011;71113;43.092;-89.268;2023-07-13T05:08:36;4.03;;;2.60;;
78368;SDS011;71113;43.092;-89.268;2023-07-13T05:11:03;3.80;;;2.60;;
78368;SDS011;71113;43.092;-89.268;2023-07-13T05:13:30;4.60;;;2.50;;
78368;SDS011;71113;43.092;-89.268;2023-07-13T05:16:03;4.68;;;2.70;;
78368;SDS011;71113;43.092;-89.268;2023-07-13T05:18:32;5.07;;;3.03;;
78368;SDS011;71113;43.092;-89.268;2023-07-13T05:21:00;5.60;;;2.72;;
78368;SDS011;71113;43.092;-89.268;2023-07-13T05:23:31;4.43;;;2.70;;
78368;SDS011;71113;43.092;-89.268;2023-07-13T05:25:58;4.65;;;2.83;;
78368;SDS011;71113;43.092;-89.268;2023-07-13T05:28:25;4.47;;;2.90;;
78368;SDS011;71113;43.092;-89.268;2023-07-13T05:30:51;4.65;;;2.67;;
78368;SDS011;71113;43.092;-89.268;2023-07-13T05:33:19;4.43;;;2.50;;
78368;SDS011;71113;43.092;-89.268;2023-07-13T05:35:45;3.63;;;2.53;;
78368;SDS011;71113;43.092;-89.268;2023-07-13T05:38:12;5.35;;;2.53;;
78368;SDS011;71113;43.092;-89.268;2023-07-13T05:40:38;6.38;;;3.05;;
78368;SDS011;71113;43.092;-89.268;2023-07-13T05:43:04;3.63;;;2.80;;
78368;SDS011;71113;43.092;-89.268;2023-07-13T05:45:30;4.47;;;2.90;;
78368;SDS011;71113;43.092;-89.268;2023-07-13T05:47:56;4.88;;;3.20;;
78368;SDS011;71113;43.092;-89.268;2023-07-13T05:50:22;3.92;;;2.78;;
78368;SDS011;71113;43.092;-89.268;2023-07-13T05:52:48;6.63;;;3.40;;
78368;SDS011;71113;43.092;-89.268;2023-07-13T05:55:14;4.38;;;2.90;;
78368;SDS011;71113;43.092;-89.268;2023-07-13T05:57:40;4.20;;;3.00;;
78368;SDS011;71113;43.092;-89.268;2023-07-13T06:00:06;4.90;;;3.20;;
78368;SDS011;71113;43.092;-89.268;2023-07-13T06:02:32;4.60;;;3.20;;
78368;SDS011;71113;43.092;-89.268;2023-07-13T06:04:58;5.47;;;2.97;;
78368;SDS011;71113;43.092;-89.268;2023-07-13T06:07:24;4.35;;;3.20;;
78368;SDS011;71113;43.092;-89.268;2023-07-13T06:09:50;5.22;;;3.15;;
78368;SDS011;71113;43.092;-89.268;2023-07-13T06:12:16;6.10;;;3.55;;
78368;SDS011;71113;43.092;-89.268;2023-07-13T06:14:42;5.90;;;3.88;;
78368;SDS011;71113;43.092;-89.268;2023-07-13T06:17:08;5.20;;;3.33;;
78368;SDS011;71113;43.092;-89.268;2023-07-13T06:19:34;5.20;;;2.97;;
78368;SDS011;71113;43.092;-89.268;2023-07-13T06:22:00;5.18;;;3.33;;
78368;SDS011;71113;43.092;-89.268;2023-07-13T06:24:26;4.60;;;3.00;;
78368;SDS011;71113;43.092;-89.268;2023-07-13T06:26:52;4.88;;;3.50;;
78368;SDS011;71113;43.092;-89.268;2023-07-13T06:29:18;5.35;;;3.08;;
78368;SDS011;71113;43.092;-89.268;2023-07-13T06:31:43;5.00;;;3.03;;
78368;SDS011;71113;43.092;-89.268;2023-07-13T06:34:09;5.15;;;3.25;;
78368;SDS011;71113;43.092;-89.268;2023-07-13T06:36:35;5.10;;;3.35;;
78368;SDS011;71113;43.092;-89.268;2023-07-13T06:39:03;5.47;;;3.30;;
78368;SDS011;71113;43.092;-89.268;2023-07-13T06:41:29;5.30;;;3.40;;
78368;SDS011;71113;43.092;-89.268;2023-07-13T06:43:56;5.63;;;3.05;;
78368;SDS011;71113;43.092;-89.268;2023-07-13T06:46:22;4.45;;;3.13;;
78368;SDS011;71113;43.092;-89.268;2023-07-13T06:48:48;6.32;;;3.30;;
78368;SDS011;71113;43.092;-89.268;2023-07-13T06:51:14;5.22;;;3.45;;
78368;SDS011;71113;43.092;-89.268;2023-07-13T06:53:40;4.60;;;3.30;;
78368;SDS011;71113;43.092;-89.268;2023-07-13T06:56:08;5.93;;;3.30;;
78368;SDS011;71113;43.092;-89.268;2023-07-13T06:58:36;5.18;;;3.47;;
78368;SDS011;71113;43.092;-89.268;2023-07-13T07:01:02;4.15;;;3.20;;
78368;SDS011;71113;43.092;-89.268;2023-07-13T07:03:29;5.22;;;3.22;;
78368;SDS011;71113;43.092;-89.268;2023-07-13T07:06:00;4.95;;;3.33;;
78368;SDS011;71113;43.092;-89.268;2023-07-13T07:08:39;6.15;;;3.50;;
78368;SDS011;71113;43.092;-89.268;2023-07-13T07:11:05;6.47;;;3.65;;
78368;SDS011;71113;43.092;-89.268;2023-07-13T07:13:33;6.32;;;3.63;;
78368;SDS011;71113;43.092;-89.268;2023-07-13T07:15:59;5.97;;;3.65;;
78368;SDS011;71113;43.092;-89.268;2023-07-13T07:18:25;6.15;;;4.03;;
78368;SDS011;71113;43.092;-89.268;2023-07-13T07:20:51;6.32;;;3.63;;
78368;SDS011;71113;43.092;-89.268;2023-07-13T07:23:17;5.53;;;3.47;;
78368;SDS011;71113;43.092;-89.268;2023-07-13T07:25:44;7.35;;;3.92;;
78368;SDS011;71113;43.092;-89.268;2023-07-13T07:28:10;5.88;;;3.67;;
78368;SDS011;71113;43.092;-89.268;2023-07-13T07:30:41;4.90;;;3.30;;
78368;SDS011;71113;43.092;-89.268;2023-07-13T07:33:08;5.30;;;3.35;;
78368;SDS011;71113;43.092;-89.268;2023-07-13T07:35:34;6.53;;;3.67;;
78368;SDS011;71113;43.092;-89.268;2023-07-13T07:38:00;5.90;;;3.90;;
78368;SDS011;71113;43.092;-89.268;2023-07-13T07:40:26;4.95;;;3.58;;
78368;SDS011;71113;43.092;-89.268;2023-07-13T07:42:52;7.50;;;3.75;;
78368;SDS011;71113;43.092;-89.268;2023-07-13T07:45:18;7.13;;;3.70;;
78368;SDS011;71113;43.092;-89.268;2023-07-13T07:47:45;5.53;;;3.90;;
78368;SDS011;71113;43.092;-89.268;2023-07-13T07:50:11;5.57;;;3.85;;
78368;SDS011;71113;43.092;-89.268;2023-07-13T07:52:37;5.75;;;3.80;;
78368;SDS011;71113;43.092;-89.268;2023-07-13T07:55:04;5.18;;;3.58;;
78368;SDS011;71113;43.092;-89.268;2023-07-13T07:57:31;5.20;;;3.60;;
78368;SDS011;71113;43.092;-89.268;2023-07-13T07:59:57;6.55;;;4.00;;
78368;SDS011;71113;43.092;-89.268;2023-07-13T08:02:24;6.03;;;3.40;;
78368;SDS011;71113;43.092;-89.268;2023-07-13T08:04:51;5.70;;;4.07;;
78368;SDS011;71113;43.092;-89.268;2023-07-13T08:07:17;8.40;;;4.10;;
78368;SDS011;71113;43.092;-89.268;2023-07-13T08:09:43;6.13;;;4.05;;
78368;SDS011;71113;43.092;-89.268;2023-07-13T08:12:09;6.63;;;4.13;;
78368;SDS011;71113;43.092;-89.268;2023-07-13T08:14:35;5.80;;;4.30;;
78368;SDS011;71113;43.092;-89.268;2023-07-13T08:17:01;5.60;;;3.97;;
78368;SDS011;71113;43.092;-89.268;2023-07-13T08:19:27;6.95;;;4.40;;
78368;SDS011;71113;43.092;-89.268;2023-07-13T08:21:53;6.75;;;4.18;;
78368;SDS011;71113;43.092;-89.268;2023-07-13T08:24:21;5.63;;;4.10;;
78368;SDS011;71113;43.092;-89.268;2023-07-13T08:26:48;6.38;;;4.22;;
78368;SDS011;71113;43.092;-89.268;2023-07-13T08:29:16;6.47;;;3.50;;
78368;SDS011;71113;43.092;-89.268;2023-07-13T08:31:42;5.78;;;3.67;;
78368;SDS011;71113;43.092;-89.268;2023-07-13T08:34:08;6.13;;;3.65;;
78368;SDS011;71113;43.092;-89.268;2023-07-13T08:36:33;5.32;;;3.55;;
78368;SDS011;71113;43.092;-89.268;2023-07-13T08:38:59;6.43;;;3.70;;
78368;SDS011;71113;43.092;-89.268;2023-07-13T08:41:25;8.77;;;4.00;;
78368;SDS011;71113;43.092;-89.268;2023-07-13T08:43:54;5.25;;;3.60;;
78368;SDS011;71113;43.092;-89.268;2023-07-13T08:48:52;6.03;;;3.83;;
78368;SDS011;71113;43.092;-89.268;2023-07-13T08:54:04;6.05;;;3.90;;
78368;SDS011;71113;43.092;-89.268;2023-07-13T08:56:37;5.95;;;3.95;;
78368;SDS011;71113;43.092;-89.268;2023-07-13T08:59:14;5.35;;;3.30;;
78368;SDS011;71113;43.092;-89.268;2023-07-13T09:04:22;6.05;;;3.72;;
78368;SDS011;71113;43.092;-89.268;2023-07-13T09:09:41;5.95;;;3.97;;
78368;SDS011;71113;43.092;-89.268;2023-07-13T09:12:45;6.00;;;3.65;;
78368;SDS011;71113;43.092;-89.268;2023-07-13T09:17:59;7.15;;;3.60;;
78368;SDS011;71113;43.092;-89.268;2023-07-13T09:20:46;5.35;;;3.70;;
78368;SDS011;71113;43.092;-89.268;2023-07-13T09:25:43;6.07;;;3.30;;
78368;SDS011;71113;43.092;-89.268;2023-07-13T09:28:14;5.25;;;3.80;;
78368;SDS011;71113;43.092;-89.268;2023-07-13T09:30:47;5.05;;;3.40;;
78368;SDS011;71113;43.092;-89.268;2023-07-13T09:33:37;7.05;;;3.90;;
78368;SDS011;71113;43.092;-89.268;2023-07-13T09:36:37;6.93;;;3.55;;
78368;SDS011;71113;43.092;-89.268;2023-07-13T09:44:39;5.40;;;3.80;;
78368;SDS011;71113;43.092;-89.268;2023-07-13T09:47:23;5.57;;;3.60;;
78368;SDS011;71113;43.092;-89.268;2023-07-13T09:50:00;5.25;;;3.75;;
78368;SDS011;71113;43.092;-89.268;2023-07-13T09:52:46;6.82;;;4.20;;
78368;SDS011;71113;43.092;-89.268;2023-07-13T10:03:24;5.55;;;3.75;;
78368;SDS011;71113;43.092;-89.268;2023-07-13T10:06:03;8.10;;;4.10;;
78368;SDS011;71113;43.092;-89.268;2023-07-13T10:08:55;5.00;;;3.45;;
78368;SDS011;71113;43.092;-89.268;2023-07-13T10:11:23;5.00;;;3.45;;
78368;SDS011;71113;43.092;-89.268;2023-07-13T10:14:14;5.65;;;3.58;;
78368;SDS011;71113;43.092;-89.268;2023-07-13T10:16:43;5.50;;;3.97;;
78368;SDS011;71113;43.092;-89.268;2023-07-13T10:19:21;5.90;;;3.70;;
78368;SDS011;71113;43.092;-89.268;2023-07-13T10:21:56;4.90;;;3.45;;
78368;SDS011;71113;43.092;-89.268;2023-07-13T10:24:29;6.35;;;3.85;;
78368;SDS011;71113;43.092;-89.268;2023-07-13T10:27:09;5.88;;;4.22;;
78368;SDS011;71113;43.092;-89.268;2023-07-13T10:29:47;5.68;;;3.88;;
78368;SDS011;71113;43.092;-89.268;2023-07-13T10:32:14;5.53;;;3.35;;
78368;SDS011;71113;43.092;-89.268;2023-07-13T10:34:40;6.40;;;3.80;;
78368;SDS011;71113;43.092;-89.268;2023-07-13T10:37:15;5.90;;;3.50;;
78368;SDS011;71113;43.092;-89.268;2023-07-13T10:39:48;7.32;;;4.20;;
78368;SDS011;71113;43.092;-89.268;2023-07-13T10:42:21;4.88;;;3.50;;
78368;SDS011;71113;43.092;-89.268;2023-07-13T10:44:53;6.63;;;3.97;;
78368;SDS011;71113;43.092;-89.268;2023-07-13T10:47:19;5.32;;;3.80;;
78368;SDS011;71113;43.092;-89.268;2023-07-13T10:49:46;7.07;;;4.05;;
78368;SDS011;71113;43.092;-89.268;2023-07-13T10:58:23;5.90;;;3.90;;
78368;SDS011;71113;43.092;-89.268;2023-07-13T11:03:27;4.88;;;3.55;;
78368;SDS011;71113;43.092;-89.268;2023-07-13T11:06:08;5.75;;;4.15;;
78368;SDS011;71113;43.092;-89.268;2023-07-13T11:18:52;7.68;;;4.22;;
78368;SDS011;71113;43.092;-89.268;2023-07-13T11:27:24;6.72;;;3.95;;
78368;SDS011;71113;43.092;-89.268;2023-07-13T11:30:17;6.38;;;4.10;;
78368;SDS011;71113;43.092;-89.268;2023-07-13T11:38:19;7.25;;;4.75;;
78368;SDS011;71113;43.092;-89.268;2023-07-13T11:40:48;6.72;;;4.35;;
78368;SDS011;71113;43.092;-89.268;2023-07-13T11:43:17;7.30;;;4.22;;
78368;SDS011;71113;43.092;-89.268;2023-07-13T11:45:43;7.32;;;4.63;;
78368;SDS011;71113;43.092;-89.268;2023-07-13T11:48:26;6.88;;;4.53;;
78368;SDS011;71113;43.092;-89.268;2023-07-13T11:51:01;6.10;;;4.47;;
78368;SDS011;71113;43.092;-89.268;2023-07-13T11:53:32;7.65;;;4.50;;
78368;SDS011;71113;43.092;-89.268;2023-07-13T11:56:05;6.72;;;4.18;;
78368;SDS011;71113;43.092;-89.268;2023-07-13T11:58:32;5.82;;;3.67;;
78368;SDS011;71113;43.092;-89.268;2023-07-13T12:01:00;6.35;;;4.32;;
78368;SDS011;71113;43.092;-89.268;2023-07-13T12:03:29;5.45;;;4.03;;
78368;SDS011;71113;43.092;-89.268;2023-07-13T12:08:25;8.50;;;3.70;;
78368;SDS011;71113;43.092;-89.268;2023-07-13T12:10:59;7.25;;;4.10;;
78368;SDS011;71113;43.092;-89.268;2023-07-13T12:13:34;6.93;;;4.00;;
78368;SDS011;71113;43.092;-89.268;2023-07-13T12:16:02;6.68;;;4.00;;
78368;SDS011;71113;43.092;-89.268;2023-07-13T12:18:43;5.40;;;3.90;;
78368;SDS011;71113;43.092;-89.268;2023-07-13T12:21:14;6.47;;;4.18;;
78368;SDS011;71113;43.092;-89.268;2023-07-13T12:23:44;6.95;;;3.85;;
78368;SDS011;71113;43.092;-89.268;2023-07-13T12:26:13;6.32;;;4.70;;
78368;SDS011;71113;43.092;-89.268;2023-07-13T12:28:45;6.43;;;3.65;;
78368;SDS011;71113;43.092;-89.268;2023-07-13T12:31:24;6.55;;;3.92;;
78368;SDS011;71113;43.092;-89.268;2023-07-13T12:33:55;7.20;;;4.20;;
78368;SDS011;71113;43.092;-89.268;2023-07-13T12:36:45;7.78;;;4.15;;
78368;SDS011;71113;43.092;-89.268;2023-07-13T12:39:38;6.60;;;3.90;;
78368;SDS011;71113;43.092;-89.268;2023-07-13T12:42:19;5.63;;;4.30;;
78368;SDS011;71113;43.092;-89.268;2023-07-13T12:44:50;5.82;;;4.40;;
78368;SDS011;71113;43.092;-89.268;2023-07-13T12:47:27;9.07;;;4.65;;
78368;SDS011;71113;43.092;-89.268;2023-07-13T12:49:54;5.38;;;3.90;;
78368;SDS011;71113;43.092;-89.268;2023-07-13T12:52:28;6.18;;;3.80;;
78368;SDS011;71113;43.092;-89.268;2023-07-13T12:55:02;6.90;;;4.25;;
78368;SDS011;71113;43.092;-89.268;2023-07-13T12:57:55;6.30;;;4.30;;
78368;SDS011;71113;43.092;-89.268;2023-07-13T13:00:28;8.98;;;4.43;;
78368;SDS011;71113;43.092;-89.268;2023-07-13T13:02:58;7.28;;;4.72;;
78368;SDS011;71113;43.092;-89.268;2023-07-13T13:07:55;8.13;;;4.20;;
78368;SDS011;71113;43.092;-89.268;2023-07-13T13:10:21;7.35;;;4.95;;
78368;SDS011;71113;43.092;-89.268;2023-07-13T13:12:47;7.40;;;4.40;;
78368;SDS011;71113;43.092;-89.268;2023-07-13T13:15:13;8.38;;;5.35;;
78368;SDS011;71113;43.092;-89.268;2023-07-13T13:17:39;5.90;;;4.38;;
78368;SDS011;71113;43.092;-89.268;2023-07-13T13:20:15;7.68;;;4.78;;
78368;SDS011;71113;43.092;-89.268;2023-07-13T13:22:42;6.47;;;4.85;;
78368;SDS011;71113;43.092;-89.268;2023-07-13T13:25:11;7.05;;;4.80;;
78368;SDS011;71113;43.092;-89.268;2023-07-13T13:27:45;6.07;;;4.45;;
78368;SDS011;71113;43.092;-89.268;2023-07-13T13:30:18;6.70;;;4.53;;
78368;SDS011;71113;43.092;-89.268;2023-07-13T13:32:46;7.78;;;4.93;;
78368;SDS011;71113;43.092;-89.268;2023-07-13T13:35:16;6.35;;;5.18;;
78368;SDS011;71113;43.092;-89.268;2023-07-13T13:37:44;7.63;;;5.00;;
78368;SDS011;71113;43.092;-89.268;2023-07-13T13:40:22;10.90;;;5.90;;
78368;SDS011;71113;43.092;-89.268;2023-07-13T13:42:52;7.28;;;5.47;;
78368;SDS011;71113;43.092;-89.268;2023-07-13T13:45:20;7.30;;;4.85;;
78368;SDS011;71113;43.092;-89.268;2023-07-13T13:47:46;8.55;;;5.32;;
78368;SDS011;71113;43.092;-89.268;2023-07-13T13:52:43;7.05;;;5.43;;
78368;SDS011;71113;43.092;-89.268;2023-07-13T13:55:12;6.93;;;4.72;;
78368;SDS011;71113;43.092;-89.268;2023-07-13T13:57:39;7.00;;;4.18;;
78368;SDS011;71113;43.092;-89.268;2023-07-13T14:00:05;7.28;;;5.50;;
78368;SDS011;71113;43.092;-89.268;2023-07-13T14:02:34;6.82;;;5.20;;
78368;SDS011;71113;43.092;-89.268;2023-07-13T14:05:02;6.25;;;4.57;;
78368;SDS011;71113;43.092;-89.268;2023-07-13T14:07:30;7.10;;;4.88;;
78368;SDS011;71113;43.092;-89.268;2023-07-13T14:09:56;7.30;;;4.70;;
78368;SDS011;71113;43.092;-89.268;2023-07-13T14:12:24;7.70;;;5.70;;
78368;SDS011;71113;43.092;-89.268;2023-07-13T14:14:53;9.43;;;5.07;;
78368;SDS011;71113;43.092;-89.268;2023-07-13T14:17:24;5.43;;;3.92;;
78368;SDS011;71113;43.092;-89.268;2023-07-13T14:19:52;11.35;;;6.32;;
78368;SDS011;71113;43.092;-89.268;2023-07-13T14:22:25;5.63;;;3.90;;
78368;SDS011;71113;43.092;-89.268;2023-07-13T14:24:55;8.45;;;4.07;;
78368;SDS011;71113;43.092;-89.268;2023-07-13T14:27:24;5.63;;;4.00;;
78368;SDS011;71113;43.092;-89.268;2023-07-13T14:29:50;5.18;;;3.42;;
78368;SDS011;71113;43.092;-89.268;2023-07-13T14:32:16;5.70;;;4.05;;
78368;SDS011;71113;43.092;-89.268;2023-07-13T14:34:42;5.15;;;3.55;;
78368;SDS011;71113;43.092;-89.268;2023-07-13T14:37:11;5.68;;;3.80;;
78368;SDS011;71113;43.092;-89.268;2023-07-13T14:39:39;4.93;;;3.80;;
78368;SDS011;71113;43.092;-89.268;2023-07-13T14:42:07;5.68;;;3.45;;
78368;SDS011;71113;43.092;-89.268;2023-07-13T14:44:34;4.45;;;3.35;;
78368;SDS011;71113;43.092;-89.268;2023-07-13T14:47:00;5.03;;;3.45;;
78368;SDS011;71113;43.092;-89.268;2023-07-13T14:49:37;5.20;;;3.38;;
78368;SDS011;71113;43.092;-89.268;2023-07-13T14:54:43;4.20;;;2.80;;
78368;SDS011;71113;43.092;-89.268;2023-07-13T14:57:15;4.45;;;3.03;;
78368;SDS011;71113;43.092;-89.268;2023-07-13T14:59:42;4.80;;;2.95;;
78368;SDS011;71113;43.092;-89.268;2023-07-13T15:02:44;5.35;;;2.63;;
78368;SDS011;71113;43.092;-89.268;2023-07-13T15:05:17;4.68;;;3.30;;
78368;SDS011;71113;43.092;-89.268;2023-07-13T15:07:48;4.35;;;2.70;;
78368;SDS011;71113;43.092;-89.268;2023-07-13T15:10:18;3.35;;;2.50;;
78368;SDS011;71113;43.092;-89.268;2023-07-13T15:12:46;4.93;;;2.95;;
78368;SDS011;71113;43.092;-89.268;2023-07-13T15:15:12;4.50;;;3.00;;
78368;SDS011;71113;43.092;-89.268;2023-07-13T15:17:42;5.95;;;3.35;;
78368;SDS011;71113;43.092;-89.268;2023-07-13T15:20:29;4.57;;;2.92;;
78368;SDS011;71113;43.092;-89.268;2023-07-13T15:22:57;4.43;;;3.17;;
78368;SDS011;71113;43.092;-89.268;2023-07-13T15:25:24;4.88;;;3.38;;
78368;SDS011;71113;43.092;-89.268;2023-07-13T15:27:52;3.92;;;2.83;;
78368;SDS011;71113;43.092;-89.268;2023-07-13T15:30:20;4.60;;;2.95;;
78368;SDS011;71113;43.092;-89.268;2023-07-13T15:32:46;5.82;;;3.25;;
78368;SDS011;71113;43.092;-89.268;2023-07-13T15:35:17;4.97;;;3.65;;
78368;SDS011;71113;43.092;-89.268;2023-07-13T15:37:45;4.38;;;3.22;;
78368;SDS011;71113;43.092;-89.268;2023-07-13T15:40:13;4.30;;;2.80;;
78368;SDS011;71113;43.092;-89.268;2023-07-13T15:42:40;4.60;;;3.20;;
78368;SDS011;71113;43.092;-89.268;2023-07-13T15:45:17;4.68;;;2.90;;